Pagina principale
METAR-TAF:

METAR-TAF

Aeroporti :

Aeroporto militare

Tulln an der Donau, Austria

latitudine: 48-19N, longitudine: 016-07E, altezza: 175 m

METAR: mancante

Ora: 15:28 (13:28 UTC)

Previsione

Il bollettino è stato emesso 2 ore e 13 minuti fa, alle 11:15 UTC
Previsione valida dal 17 alle 12 UTC al 17 alle 21 UTC
Vento 5 kt da direzioni variabili
Visibilità 10 km o più
Poco nuvoloso ad un'altezza di 5000 ft
Evoluzione graduale
dal 17 alle 12 UTC al 17 alle 14 UTC
Vento 5 kt da est
Poco nuvoloso ad un'altezza di 5000 ft
Nubi sparse ad un'altezza di 14000 ft

TAF: LOXT 171115Z 1712/1721 VRB05KT 9999 FEW050 BECMG 1712/1714 10005KT FEW050 SCT140

Osservazioni e previsioni meteorologiche di più di 4000 aeroporti (messaggi METAR e TAF).

Le stazioni disponibili sono rappresentate dai dischi gialli e rossi sulla carta.

Puntare il mouse per vedere il nome della stazione.

Clicca sopra per visualizzare le osservazioni e previsioni meteorologiche.

Per cambiare la mappa : fare clic sui pulsanti verdi con una croce nera per ingrandire, il pulsante verde con un trattino per diminuire, o sulla freccia verde per le mappe adiacenti.


METAR-TAF: